Buckland, AK

1:32 AM AKDT on October 26, 2014 (GMT -0800)
Buckland | Change Station
CLOSE
Current Station
Airport
Location: Buckland,
Elevation: 30 ft
Nearby Weather Stations

Elev 30 ft 65.98 °N, 161.15 °W | Updated 16 minutes ago

Mostly Cloudy
Mostly Cloudy
30 °F
Feels Like 27 °F
N
4
Wind Variable Wind from SSE

Today
High -- | Low -- °F
--% Chance of Precip.
Yesterday
High -- | Low -- °F
Precip. -- in
10:19 AM 6:36 PM
Waxing Crescent, 7% visible
Pressure 29.64 in
Visibility 10.0 miles
Clouds Mostly Cloudy 12000 ft
Windchill 27 °F
Dew Point 25 °F
Humidity 80%
Rainfall 0.00 in
Snow Depth Not available.
UV 0 out of 12
Pollen Not available.
Air Quality Not available.
Flu Activity Local Activity
METAR PABL 260916Z AUTO 16003KT 10SM BKN120 M01/M04 A2964 RMK AO1

More Conditions Fewer Conditions

Pressure 29.64 in
Visibility 10.0 miles
Clouds Mostly Cloudy 12000 ft
Windchill 27 °F
Dew Point 25 °F
Humidity 80%
Rainfall 0.00 in
Snow Depth Not available.
UV 0 out of 12
Pollen Not available.
Air Quality Not available.
Flu Activity Local Activity
METAR PABL 260916Z AUTO 16003KT 10SM BKN120 M01/M04 A2964 RMK AO1

More Conditions Fewer Conditions

10-Day Weather Forecast

Almanac

Astronomy

Oct. 26, 2014 Rise Set
Actual Time 10:19 AM AKDT 6:36 PM AKDT
Civil Twilight 9:23 AM AKDT 7:32 PM AKDT
Nautical Twilight 8:23 AM AKDT 8:32 PM AKDT
Astronomical Twilight 7:23 AM AKDT 9:31 PM AKDT
Moon 2:05 PM AKDT 8:00 PM AKDT
Length of Visible Light 10h 08m
Length of Day
8h 17m
Tomorrow will be 7m 12s shorter.
Waxing Crescent, 7% of the Moon is Illuminated
Today
Waxing Crescent
Oct 30
First Quarter
Nov 6
Full
Nov 14
Last Quarter
Nov 22
New

Today's Extremes

State Highs State Lows

Community

WunderPhotos

Upload Photos

1,765,130 photos uploaded!

Nearby

Snow Depth

Station Depth Elevation
Rocky Point 3 in 500 ft
Gobblers Knob 2 in 2030 ft
Coldfoot 6 in 1040 ft
Atigun Pass 14 in 4800 ft
Imnaviat Creek 21 in 3050 ft

Earthquake Activity

City Distance Mag. Time & Date
No recent earthquake activity has been reported nearby.
Minimum magnitude displayed is 2.5.

Coastal Water Temperatures

Place Temperature
No Stations Reporting

Nearby Weather Stations